Time;durP1;ratioP1;P1;durP2;ratioP2;P2;SDS_P1;SDS_P2;PMS_P1;PMS_P2;Temp;Humidity;BMP_temperature;BMP_pressure;BME280_temperature;BME280_humidity;BME280_pressure;Samples;Min_cycle;Max_cycle;Signal;HPM_P1;HPM_P2
2021/03/20 00:02:03;;;;;;;0.60;0.60;;;-2.60;99.90;;;;;;6269363;22;20624;-80
2021/03/20 00:04:29;;;;;;;0.60;0.60;;;-2.60;99.90;;;;;;6269609;22;20179;-80
2021/03/20 00:06:57;;;;;;;0.60;0.60;;;-2.60;99.90;;;;;;6269207;22;20331;-80
2021/03/20 00:09:27;;;;;;;0.60;0.60;;;-2.60;99.90;;;;;;6268862;22;20205;-80
2021/03/20 00:11:55;;;;;;;0.60;0.60;;;-2.70;99.90;;;;;;6268813;22;20203;-80
2021/03/20 00:14:24;;;;;;;0.60;0.60;;;-2.70;99.90;;;;;;6268849;22;20179;-81
2021/03/20 00:16:51;;;;;;;0.60;0.60;;;-2.70;99.90;;;;;;6269103;22;20175;-78
2021/03/20 00:19:17;;;;;;;0.60;0.60;;;-2.70;99.90;;;;;;6269170;22;20179;-80
2021/03/20 00:21:44;;;;;;;0.60;0.60;;;-2.70;99.90;;;;;;6269507;22;20627;-79
2021/03/20 00:24:11;;;;;;;0.50;0.50;;;-2.70;99.90;;;;;;6268952;22;20186;-79
2021/03/20 00:26:38;;;;;;;0.60;0.60;;;-2.70;99.90;;;;;;6268593;22;20183;-79
2021/03/20 00:29:06;;;;;;;0.60;0.60;;;-2.80;99.90;;;;;;6268626;22;20175;-78
2021/03/20 00:31:33;;;;;;;0.50;0.50;;;-2.70;99.90;;;;;;6268925;22;20191;-79
2021/03/20 00:34:00;;;;;;;0.60;0.60;;;-2.70;99.90;;;;;;6269764;22;20242;-78
2021/03/20 00:36:26;;;;;;;0.60;0.60;;;-2.70;99.90;;;;;;6269074;22;20183;-78
2021/03/20 00:38:52;;;;;;;0.60;0.60;;;-2.70;99.90;;;;;;6268976;22;20687;-79
2021/03/20 00:41:18;;;;;;;0.60;0.60;;;-2.70;99.90;;;;;;6266977;22;20171;-79
2021/03/20 00:43:44;;;;;;;0.60;0.60;;;-2.70;99.90;;;;;;6269318;22;20175;-79
2021/03/20 00:46:12;;;;;;;0.60;0.60;;;-2.70;99.90;;;;;;6270062;22;20175;-79
2021/03/20 00:48:41;;;;;;;0.60;0.60;;;-2.60;99.90;;;;;;6258563;22;20199;-79
2021/03/20 00:51:09;;;;;;;0.60;0.60;;;-2.60;99.90;;;;;;6271577;22;20431;-79
2021/03/20 00:53:35;;;;;;;0.60;0.60;;;-2.70;99.90;;;;;;6270655;22;20182;-79
2021/03/20 00:56:01;;;;;;;0.60;0.60;;;-2.60;99.90;;;;;;6272403;22;20228;-79
2021/03/20 00:58:30;;;;;;;0.60;0.60;;;-2.70;99.90;;;;;;6272134;22;20179;-79
2021/03/20 01:01:00;;;;;;;0.60;0.60;;;-2.70;99.90;;;;;;6271318;22;20744;-79
2021/03/20 01:03:27;;;;;;;0.60;0.60;;;-2.70;99.90;;;;;;6271421;22;20270;-79
2021/03/20 01:05:54;;;;;;;0.55;0.55;;;-2.80;99.90;;;;;;6271589;22;20534;-79
2021/03/20 01:08:21;;;;;;;0.60;0.60;;;-2.80;99.90;;;;;;6271542;22;20179;-79
2021/03/20 01:10:48;;;;;;;0.60;0.60;;;-2.80;99.90;;;;;;6271767;22;20195;-79
2021/03/20 01:13:15;;;;;;;0.60;0.60;;;-2.80;99.90;;;;;;6272164;22;20563;-79
2021/03/20 01:15:41;;;;;;;0.60;0.60;;;-2.90;99.90;;;;;;6271916;22;20198;-79
2021/03/20 01:18:08;;;;;;;0.60;0.60;;;-2.80;99.90;;;;;;6271588;22;20183;-79
2021/03/20 01:20:35;;;;;;;0.60;0.60;;;-2.90;99.90;;;;;;6271238;22;20167;-79
2021/03/20 01:23:03;;;;;;;0.60;0.60;;;-2.70;99.90;;;;;;6272222;22;20224;-79
2021/03/20 01:25:30;;;;;;;0.60;0.60;;;-2.90;99.90;;;;;;6272078;22;20197;-79
2021/03/20 01:27:56;;;;;;;0.60;0.60;;;-3.00;99.90;;;;;;6271188;22;20655;-79
2021/03/20 01:30:27;;;;;;;0.50;0.50;;;-3.00;99.90;;;;;;6271248;22;20190;-79
2021/03/20 01:32:53;;;;;;;0.60;0.60;;;-3.00;99.90;;;;;;6271503;22;20174;-79
2021/03/20 01:35:20;;;;;;;0.60;0.60;;;-3.00;99.90;;;;;;6271102;22;20171;-79
2021/03/20 01:37:46;;;;;;;0.60;0.60;;;-3.10;99.90;;;;;;6271967;22;20185;-80
2021/03/20 01:40:16;;;;;;;0.60;0.60;;;-3.20;99.90;;;;;;6271365;22;20171;-80
2021/03/20 01:42:43;;;;;;;0.60;0.60;;;-3.20;99.90;;;;;;6271290;22;20179;-80
2021/03/20 01:45:15;;;;;;;0.60;0.60;;;-3.30;99.90;;;;;;6271352;22;20179;-80
2021/03/20 01:47:48;;;;;;;0.52;0.52;;;-3.30;99.90;;;;;;6271133;22;20171;-80
2021/03/20 01:50:21;;;;;;;0.60;0.60;;;-3.40;99.90;;;;;;6271660;22;20182;-79
2021/03/20 01:52:51;;;;;;;0.50;0.50;;;-3.30;99.90;;;;;;6271404;22;20160;-80
2021/03/20 01:55:18;;;;;;;0.50;0.50;;;-3.40;99.90;;;;;;6271570;22;20175;-80
2021/03/20 01:57:50;;;;;;;0.60;0.60;;;-3.40;99.90;;;;;;6271700;22;20533;-80
2021/03/20 02:00:23;;;;;;;0.60;0.60;;;-3.40;99.90;;;;;;6271199;22;20660;-79
2021/03/20 02:02:50;;;;;;;0.57;0.57;;;-3.40;99.90;;;;;;6271076;22;20163;-79
2021/03/20 02:05:20;;;;;;;0.60;0.60;;;-3.50;99.90;;;;;;6271576;22;20179;-79
2021/03/20 02:07:46;;;;;;;0.60;0.60;;;-3.60;99.90;;;;;;6271435;22;20549;-79
2021/03/20 02:10:13;;;;;;;0.60;0.60;;;-3.60;99.90;;;;;;6270995;22;20508;-79
2021/03/20 02:12:44;;;;;;;0.60;0.60;;;-3.60;99.90;;;;;;6265575;22;20186;-80
2021/03/20 02:15:16;;;;;;;0.60;0.60;;;-3.70;99.90;;;;;;6269797;22;20243;-80
2021/03/20 02:17:50;;;;;;;0.57;0.57;;;-3.70;99.90;;;;;;6270559;22;20160;-80
2021/03/20 02:21:01;;;;;;;0.65;0.65;;;-3.60;99.90;;;;;;6270101;22;20197;-80
2021/03/20 02:23:48;;;;;;;0.60;0.60;;;-3.60;99.90;;;;;;6197675;22;20179;-80
2021/03/20 02:27:06;;;;;;;0.60;0.60;;;-3.50;99.90;;;;;;6270012;22;20152;-81
2021/03/20 02:30:24;;;;;;;0.60;0.60;;;-3.50;99.90;;;;;;6270163;22;20262;-80
2021/03/20 02:33:18;;;;;;;0.60;0.60;;;-3.40;99.90;;;;;;6269472;22;20179;-80
2021/03/20 02:35:57;;;;;;;0.60;0.60;;;-3.50;99.90;;;;;;6270396;22;20159;-80
2021/03/20 02:38:30;;;;;;;0.60;0.60;;;-3.60;99.90;;;;;;6269406;22;20659;-80
2021/03/20 02:41:02;;;;;;;0.60;0.60;;;-3.60;99.90;;;;;;6270271;22;20159;-80
2021/03/20 02:43:37;;;;;;;0.60;0.60;;;-3.70;99.90;;;;;;6270007;22;20159;-80
2021/03/20 02:46:09;;;;;;;0.60;0.60;;;-3.60;99.90;;;;;;6269871;22;20197;-79
2021/03/20 02:48:46;;;;;;;0.60;0.60;;;-3.70;99.90;;;;;;6269623;22;20170;-79
2021/03/20 02:51:20;;;;;;;0.60;0.60;;;-3.70;99.90;;;;;;6269351;22;20690;-80
2021/03/20 02:53:52;;;;;;;0.60;0.60;;;-3.80;99.90;;;;;;6270163;22;20163;-79
2021/03/20 02:56:27;;;;;;;0.60;0.60;;;-3.90;99.90;;;;;;6269545;22;20160;-79
2021/03/20 02:58:58;;;;;;;0.60;0.60;;;-3.90;99.90;;;;;;6269480;22;20159;-79
2021/03/20 03:01:25;;;;;;;0.60;0.60;;;-3.80;99.90;;;;;;6269060;22;20198;-79
2021/03/20 03:03:55;;;;;;;0.60;0.60;;;-3.80;99.90;;;;;;6269148;22;20624;-80
2021/03/20 03:06:28;;;;;;;0.60;0.60;;;-3.80;99.90;;;;;;6268923;22;20679;-82
2021/03/20 03:08:59;;;;;;;0.60;0.60;;;-3.80;99.90;;;;;;6269321;22;20170;-80
2021/03/20 03:11:30;;;;;;;0.60;0.60;;;-3.90;99.90;;;;;;6269316;22;20206;-80
2021/03/20 03:14:00;;;;;;;0.60;0.60;;;-3.90;99.90;;;;;;6269413;22;20499;-80
2021/03/20 03:16:32;;;;;;;0.60;0.60;;;-3.90;99.90;;;;;;6269475;22;20182;-80
2021/03/20 03:19:02;;;;;;;0.60;0.60;;;-3.80;99.90;;;;;;6269828;22;20160;-79
2021/03/20 03:21:32;;;;;;;0.60;0.60;;;-3.60;99.90;;;;;;6269582;22;20608;-79
2021/03/20 03:23:59;;;;;;;0.60;0.60;;;-3.60;99.90;;;;;;6269598;22;20179;-79
2021/03/20 03:26:28;;;;;;;0.60;0.60;;;-3.60;99.90;;;;;;6269256;22;20179;-79
2021/03/20 03:28:58;;;;;;;0.60;0.60;;;-3.50;99.90;;;;;;6268885;22;20659;-79
2021/03/20 03:31:29;;;;;;;0.50;0.50;;;-3.40;99.90;;;;;;6269043;22;20217;-79
2021/03/20 03:34:03;;;;;;;0.60;0.60;;;-3.30;99.90;;;;;;6268859;22;20163;-79
2021/03/20 03:36:35;;;;;;;0.60;0.60;;;-3.30;99.90;;;;;;6269641;22;20160;-79
2021/03/20 03:39:10;;;;;;;0.60;0.60;;;-3.30;99.90;;;;;;6269658;22;20623;-80
2021/03/20 03:41:39;;;;;;;0.60;0.60;;;-3.30;99.90;;;;;;6268983;22;20216;-79
2021/03/20 03:44:07;;;;;;;0.55;0.55;;;-3.30;99.90;;;;;;6268905;22;20644;-79
2021/03/20 03:46:37;;;;;;;0.60;0.60;;;-3.30;99.90;;;;;;6268809;22;20663;-80
2021/03/20 03:49:09;;;;;;;0.60;0.60;;;-3.40;99.90;;;;;;6269244;22;20166;-79
2021/03/20 03:51:35;;;;;;;0.60;0.60;;;-3.40;99.90;;;;;;6268992;22;20198;-79
2021/03/20 03:54:02;;;;;;;0.60;0.60;;;-3.40;99.90;;;;;;6269224;22;20186;-79
2021/03/20 03:56:47;;;;;;;0.60;0.60;;;-3.40;99.90;;;;;;6267355;22;20179;-79
2021/03/20 03:59:15;;;;;;;0.50;0.50;;;-3.40;99.90;;;;;;6268965;22;20550;-79
2021/03/20 04:01:50;;;;;;;0.60;0.60;;;-3.40;99.90;;;;;;6269939;22;20195;-79
2021/03/20 04:04:34;;;;;;;0.60;0.60;;;-3.40;99.90;;;;;;6270293;22;20175;-79
2021/03/20 04:07:13;;;;;;;0.50;0.50;;;-3.30;99.90;;;;;;6270486;22;20174;-78
2021/03/20 04:09:53;;;;;;;0.60;0.60;;;-3.30;99.90;;;;;;6270414;22;20156;-79
2021/03/20 04:12:23;;;;;;;0.60;0.60;;;-3.30;99.90;;;;;;6269832;22;20178;-78
2021/03/20 04:14:55;;;;;;;0.60;0.60;;;-3.30;99.90;;;;;;6270099;22;20179;-79
2021/03/20 04:17:27;;;;;;;0.60;0.60;;;-3.20;99.90;;;;;;6269824;22;20290;-79
2021/03/20 04:20:02;;;;;;;0.60;0.60;;;-3.20;99.90;;;;;;6270198;22;20164;-79
2021/03/20 04:22:36;;;;;;;0.60;0.60;;;-3.20;99.90;;;;;;6272646;22;20163;-79
2021/03/20 04:25:09;;;;;;;0.60;0.60;;;-3.20;99.90;;;;;;6272374;22;20182;-79
2021/03/20 04:27:41;;;;;;;0.60;0.60;;;-3.10;99.90;;;;;;6272051;22;20560;-79
2021/03/20 04:30:14;;;;;;;0.60;0.60;;;-3.10;99.90;;;;;;6272054;22;20170;-79
2021/03/20 04:32:47;;;;;;;0.60;0.60;;;-3.10;99.90;;;;;;6271793;22;20553;-78
2021/03/20 04:35:19;;;;;;;0.60;0.60;;;-2.90;99.90;;;;;;6272515;22;20174;-78
2021/03/20 04:37:49;;;;;;;0.60;0.60;;;-3.00;99.90;;;;;;6272623;22;20228;-78
2021/03/20 04:40:28;;;;;;;0.60;0.60;;;-2.90;99.90;;;;;;6272451;22;20166;-78
2021/03/20 04:42:56;;;;;;;0.60;0.60;;;-2.90;99.90;;;;;;6271962;22;20232;-78
2021/03/20 04:45:28;;;;;;;0.60;0.60;;;-2.90;99.90;;;;;;6271804;22;20179;-79
2021/03/20 04:47:56;;;;;;;0.60;0.60;;;-2.90;99.90;;;;;;6271659;22;20162;-78
2021/03/20 04:50:27;;;;;;;0.60;0.60;;;-2.90;99.90;;;;;;6271630;22;20199;-78
2021/03/20 04:52:55;;;;;;;0.50;0.50;;;-2.90;99.90;;;;;;6271856;22;20855;-78
2021/03/20 04:55:22;;;;;;;0.60;0.60;;;-3.00;99.90;;;;;;6271585;22;20309;-78
2021/03/20 04:57:54;;;;;;;0.50;0.50;;;-3.00;99.90;;;;;;6271803;22;20174;-78
2021/03/20 05:00:26;;;;;;;0.57;0.57;;;-2.90;99.90;;;;;;6271362;22;20202;-79
2021/03/20 05:02:58;;;;;;;0.60;0.60;;;-2.80;99.90;;;;;;6271835;22;20163;-79
2021/03/20 05:05:30;;;;;;;0.60;0.60;;;-2.80;99.90;;;;;;6271732;22;20182;-79
2021/03/20 05:08:00;;;;;;;0.50;0.50;;;-2.80;99.90;;;;;;6272191;22;20178;-79
2021/03/20 05:10:32;;;;;;;0.60;0.60;;;-2.70;99.90;;;;;;6271771;22;20163;-79
2021/03/20 05:13:00;;;;;;;0.60;0.60;;;-2.70;99.90;;;;;;6272332;22;20519;-79
2021/03/20 05:15:29;;;;;;;0.60;0.60;;;-2.70;99.90;;;;;;6271420;22;20817;-80
2021/03/20 05:17:56;;;;;;;0.60;0.60;;;-2.70;99.90;;;;;;6271220;22;20305;-80
2021/03/20 05:20:23;;;;;;;0.55;0.55;;;-2.70;99.90;;;;;;6271421;22;20427;-80
2021/03/20 05:22:50;;;;;;;0.60;0.60;;;-2.70;99.90;;;;;;6271245;22;20198;-80
2021/03/20 05:25:18;;;;;;;0.60;0.60;;;-2.70;99.90;;;;;;6271572;22;20557;-79
2021/03/20 05:27:44;;;;;;;0.60;0.60;;;-2.70;99.90;;;;;;6272161;22;20503;-79
2021/03/20 05:30:13;;;;;;;0.60;0.60;;;-2.60;99.90;;;;;;6270954;22;20175;-78
2021/03/20 05:32:39;;;;;;;0.52;0.52;;;-2.60;99.90;;;;;;6270957;22;20571;-79
2021/03/20 05:35:08;;;;;;;0.60;0.60;;;-2.50;99.90;;;;;;6271175;22;20175;-79
2021/03/20 05:37:36;;;;;;;0.60;0.60;;;-2.60;99.90;;;;;;6271099;22;20167;-79
2021/03/20 05:40:05;;;;;;;0.60;0.60;;;-2.50;99.90;;;;;;6271655;22;20186;-80
2021/03/20 05:43:00;;;;;;;0.60;0.60;;;-2.50;99.90;;;;;;6271639;22;20178;-80
2021/03/20 05:45:31;;;;;;;0.60;0.60;;;-2.50;99.90;;;;;;6271851;22;20623;-80
2021/03/20 05:48:03;;;;;;;0.60;0.60;;;-2.60;99.90;;;;;;6272627;22;20163;-80
2021/03/20 05:51:05;;;;;;;0.60;0.60;;;-2.50;99.90;;;;;;6272608;22;20203;-79
2021/03/20 05:53:52;;;;;;;0.60;0.60;;;-2.50;99.90;;;;;;6272790;22;20168;-80
2021/03/20 05:56:25;;;;;;;0.60;0.60;;;-2.50;99.90;;;;;;6271991;22;20673;-80
2021/03/20 05:59:05;;;;;;;0.55;0.55;;;-2.50;99.90;;;;;;6271792;22;20635;-80
2021/03/20 06:01:42;;;;;;;0.60;0.60;;;-2.50;99.90;;;;;;6271937;22;20195;-79
2021/03/20 06:04:27;;;;;;;0.60;0.60;;;-2.50;99.90;;;;;;6272283;22;20264;-79
2021/03/20 06:07:29;;;;;;;0.60;0.60;;;-2.40;99.90;;;;;;6271821;22;20312;-78
2021/03/20 06:10:06;;;;;;;0.60;0.60;;;-2.40;99.90;;;;;;6261691;22;20186;-80
2021/03/20 06:12:46;;;;;;;0.50;0.50;;;-2.40;99.90;;;;;;6272414;22;20182;-80
2021/03/20 06:15:18;;;;;;;0.60;0.60;;;-2.40;99.90;;;;;;6272660;22;20492;-80
2021/03/20 06:18:01;;;;;;;0.60;0.60;;;-2.30;99.90;;;;;;6272435;22;20171;-80
2021/03/20 06:20:36;;;;;;;0.60;0.60;;;-2.20;99.90;;;;;;6272229;22;20540;-80
2021/03/20 06:23:44;;;;;;;0.60;0.60;;;-2.20;99.90;;;;;;6272304;22;20163;-80
2021/03/20 06:26:15;;;;;;;0.60;0.60;;;-2.20;99.90;;;;;;6272016;22;20167;-80
2021/03/20 06:28:48;;;;;;;0.50;0.50;;;-2.10;99.90;;;;;;6272117;22;20164;-80
2021/03/20 06:31:21;;;;;;;0.60;0.60;;;-2.10;99.90;;;;;;6271738;22;20190;-80
2021/03/20 06:33:53;;;;;;;0.60;0.60;;;-2.10;99.90;;;;;;6271288;22;20163;-80
2021/03/20 06:36:24;;;;;;;0.60;0.60;;;-2.00;99.90;;;;;;6270925;22;20459;-80
2021/03/20 06:39:00;;;;;;;0.60;0.60;;;-1.90;99.90;;;;;;6271282;22;20166;-80
2021/03/20 06:41:34;;;;;;;0.60;0.60;;;-1.90;99.90;;;;;;6271322;22;20159;-80
2021/03/20 06:44:10;;;;;;;0.50;0.50;;;-1.80;99.90;;;;;;6270992;22;20168;-80
2021/03/20 06:46:39;;;;;;;0.60;0.60;;;-1.80;99.90;;;;;;6270974;22;20182;-80
2021/03/20 06:49:22;;;;;;;0.60;0.60;;;-1.70;99.90;;;;;;6270857;22;20535;-80
2021/03/20 06:51:48;;;;;;;0.60;0.60;;;-1.60;99.90;;;;;;6271116;22;20195;-80
2021/03/20 06:54:19;;;;;;;0.50;0.50;;;-1.60;99.90;;;;;;6271533;22;20175;-79
2021/03/20 06:56:48;;;;;;;0.50;0.50;;;-1.60;99.90;;;;;;6271706;22;20532;-79
2021/03/20 06:59:15;;;;;;;0.60;0.60;;;-1.60;99.90;;;;;;6271426;22;20182;-80
2021/03/20 07:01:49;;;;;;;0.60;0.60;;;-1.50;99.90;;;;;;6270562;22;20198;-80
2021/03/20 07:04:35;;;;;;;0.60;0.60;;;-1.50;99.90;;;;;;6271225;22;20162;-80
2021/03/20 07:07:18;;;;;;;0.60;0.60;;;-1.40;99.90;;;;;;6271396;22;20166;-82
2021/03/20 07:09:45;;;;;;;0.60;0.60;;;-1.40;99.90;;;;;;6271393;22;20632;-85
2021/03/20 07:12:16;;;;;;;0.60;0.60;;;-1.30;99.90;;;;;;6271007;22;20205;-80
2021/03/20 07:14:46;;;;;;;0.52;0.52;;;-1.30;99.90;;;;;;6271232;22;20485;-81
2021/03/20 07:17:30;;;;;;;0.60;0.60;;;-1.30;99.90;;;;;;6270850;22;20650;-84
2021/03/20 07:19:58;;;;;;;0.60;0.60;;;-1.30;99.90;;;;;;6271021;22;20167;-81
2021/03/20 07:22:29;;;;;;;0.60;0.60;;;-1.20;99.90;;;;;;6270797;22;20182;-84
2021/03/20 07:24:55;;;;;;;0.60;0.60;;;-1.10;99.90;;;;;;6270576;22;20152;-84
2021/03/20 07:27:29;;;;;;;0.60;0.60;;;-1.10;99.90;;;;;;6270699;22;20470;-82
2021/03/20 07:29:59;;;;;;;0.57;0.57;;;-1.10;99.90;;;;;;6270728;22;20159;-82
2021/03/20 07:32:34;;;;;;;0.60;0.60;;;-1.10;99.90;;;;;;6270715;22;20523;-83
2021/03/20 07:35:24;;;;;;;0.60;0.60;;;-1.10;99.90;;;;;;6271276;22;20159;-83
2021/03/20 07:37:51;;;;;;;0.50;0.50;;;-0.40;99.90;;;;;;6270898;22;20167;-82
2021/03/20 07:40:29;;;;;;;0.60;0.60;;;-1.00;99.90;;;;;;6271258;22;20232;-83
2021/03/20 07:43:12;;;;;;;0.60;0.60;;;-1.00;99.90;;;;;;6271144;22;20178;-84
2021/03/20 07:45:39;;;;;;;0.60;0.60;;;-0.90;99.90;;;;;;6271089;22;20167;-82
2021/03/20 07:48:15;;;;;;;0.52;0.52;;;-0.90;99.90;;;;;;6270669;22;20232;-81
2021/03/20 07:50:45;;;;;;;0.57;0.57;;;-0.80;99.90;;;;;;6270705;22;20658;-82
2021/03/20 07:53:14;;;;;;;0.60;0.60;;;-0.80;99.90;;;;;;6270654;22;20248;-81
2021/03/20 07:55:59;;;;;;;0.60;0.60;;;-0.70;99.90;;;;;;6271345;22;20560;-81
2021/03/20 07:58:32;;;;;;;0.50;0.50;;;-0.60;99.90;;;;;;6273089;22;20186;-80
2021/03/20 08:01:01;;;;;;;0.60;0.60;;;-0.60;99.90;;;;;;6256516;22;20214;-80
2021/03/20 08:03:30;;;;;;;0.57;0.57;;;-0.50;99.90;;;;;;6267201;22;20210;-81
2021/03/20 08:06:11;;;;;;;0.52;0.52;;;-0.40;99.90;;;;;;6272279;22;20246;-80
2021/03/20 08:08:38;;;;;;;0.50;0.50;;;-0.40;99.90;;;;;;6272087;22;20638;-80
2021/03/20 08:11:05;;;;;;;0.60;0.60;;;-0.30;99.90;;;;;;6272393;22;20529;-80
2021/03/20 08:13:42;;;;;;;0.60;0.60;;;-0.30;99.90;;;;;;6272127;22;20178;-81
2021/03/20 08:16:09;;;;;;;0.52;0.52;;;-0.20;99.90;;;;;;6271291;22;20151;-80
2021/03/20 08:18:38;;;;;;;0.60;0.60;;;-0.20;99.90;;;;;;6272620;22;20281;-81
2021/03/20 08:21:31;;;;;;;0.60;0.60;;;-0.10;99.90;;;;;;6272445;22;20182;-81
2021/03/20 08:24:08;;;;;;;0.60;0.60;;;-0.10;99.90;;;;;;6273404;22;20203;-81
2021/03/20 08:26:48;;;;;;;0.60;0.60;;;0.00;99.90;;;;;;6271784;22;20175;-80
2021/03/20 08:29:25;;;;;;;0.50;0.50;;;0.80;99.90;;;;;;6272623;22;20174;-82
2021/03/20 08:32:07;;;;;;;0.60;0.60;;;0.10;99.90;;;;;;6271990;22;20186;-81
2021/03/20 08:34:49;;;;;;;0.60;0.60;;;0.20;99.90;;;;;;6272926;22;20213;-82
2021/03/20 08:37:31;;;;;;;0.60;0.60;;;0.30;99.90;;;;;;6273808;22;20188;-81
2021/03/20 08:40:14;;;;;;;0.60;0.60;;;0.30;99.90;;;;;;6273644;22;20159;-80
2021/03/20 08:43:01;;;;;;;0.60;0.60;;;0.30;99.90;;;;;;6272601;22;20156;-79
2021/03/20 08:45:32;;;;;;;0.60;0.60;;;0.40;99.90;;;;;;6260490;22;20194;-80
2021/03/20 08:48:10;;;;;;;0.60;0.60;;;0.50;99.90;;;;;;6272563;22;20159;-79
2021/03/20 08:50:43;;;;;;;0.50;0.50;;;0.50;99.90;;;;;;6269045;22;20210;-80
2021/03/20 08:53:17;;;;;;;0.60;0.60;;;0.60;99.90;;;;;;6271849;22;20179;-80
2021/03/20 08:55:59;;;;;;;0.60;0.60;;;0.70;99.90;;;;;;6272465;22;20159;-78
2021/03/20 08:58:51;;;;;;;0.60;0.60;;;0.70;99.90;;;;;;6271758;22;20532;-82
2021/03/20 09:01:36;;;;;;;0.60;0.60;;;0.80;99.90;;;;;;6252946;22;20194;-81
2021/03/20 09:04:06;;;;;;;0.50;0.50;;;0.90;99.90;;;;;;6272426;22;20163;-81
2021/03/20 09:06:37;;;;;;;0.60;0.60;;;0.90;99.90;;;;;;6268717;22;20166;-79
2021/03/20 09:09:11;;;;;;;0.60;0.60;;;1.00;99.90;;;;;;6270560;22;20481;-79
2021/03/20 09:11:43;;;;;;;0.60;0.60;;;1.00;99.90;;;;;;6271414;22;20458;-80
2021/03/20 09:14:18;;;;;;;0.50;0.50;;;1.00;99.90;;;;;;6271770;22;20159;-80
2021/03/20 09:16:49;;;;;;;0.60;0.60;;;1.10;99.90;;;;;;6270989;22;20212;-80
2021/03/20 09:19:22;;;;;;;0.60;0.60;;;1.20;99.90;;;;;;6271713;22;20202;-80
2021/03/20 09:21:50;;;;;;;0.60;0.60;;;1.30;99.90;;;;;;6271424;22;20209;-79
2021/03/20 09:24:21;;;;;;;0.60;0.60;;;1.40;99.90;;;;;;6272070;22;20528;-79
2021/03/20 09:26:49;;;;;;;0.60;0.60;;;1.40;99.90;;;;;;6271961;22;20536;-81
2021/03/20 09:29:18;;;;;;;0.60;0.60;;;1.50;99.90;;;;;;6272172;22;20183;-79
2021/03/20 09:32:13;;;;;;;0.60;0.60;;;1.60;99.90;;;;;;6270957;22;20195;-80
2021/03/20 09:34:47;;;;;;;0.60;0.60;;;1.70;99.90;;;;;;6271211;22;20163;-81
2021/03/20 09:37:47;;;;;;;0.60;0.60;;;1.70;99.90;;;;;;6271330;22;20727;-82
2021/03/20 09:40:52;;;;;;;0.60;0.60;;;1.80;99.90;;;;;;6266387;22;20197;-84
2021/03/20 09:43:38;;;;;;;0.60;0.60;;;1.80;99.90;;;;;;6271546;22;20163;-84
2021/03/20 09:46:48;;;;;;;0.50;0.50;;;1.90;99.90;;;;;;6268896;22;20238;-85
2021/03/20 09:49:57;;;;;;;0.60;0.60;;;2.00;99.90;;;;;;6273748;22;20202;-85
2021/03/20 09:52:38;;;;;;;0.60;0.60;;;2.10;99.90;;;;;;6271953;22;21136;-84
2021/03/20 09:55:47;;;;;;;0.60;0.60;;;2.20;99.90;;;;;;6273024;22;20293;-84
2021/03/20 09:58:38;;;;;;;0.60;0.60;;;2.20;99.90;;;;;;6270180;22;20213;-86
2021/03/20 10:01:17;;;;;;;0.50;0.50;;;2.10;99.90;;;;;;6268557;22;20203;-85
2021/03/20 10:04:20;;;;;;;0.60;0.60;;;2.10;99.90;;;;;;6270043;22;20171;-83
2021/03/20 10:07:04;;;;;;;0.60;0.60;;;2.20;99.90;;;;;;6271895;22;20474;-82
2021/03/20 10:09:31;;;;;;;0.60;0.60;;;2.30;99.90;;;;;;6270224;22;20183;-83
2021/03/20 10:12:21;;;;;;;0.60;0.60;;;2.30;99.90;;;;;;6270873;22;20191;-83
2021/03/20 10:15:05;;;;;;;0.60;0.60;;;2.30;99.90;;;;;;6271080;22;20167;-82
2021/03/20 10:17:52;;;;;;;0.60;0.60;;;2.30;99.90;;;;;;6270627;22;20159;-83
2021/03/20 10:20:21;;;;;;;0.60;0.60;;;2.50;99.90;;;;;;6269600;22;20189;-83
2021/03/20 10:22:53;;;;;;;0.60;0.60;;;2.70;99.90;;;;;;6271102;22;20182;-83
2021/03/20 10:25:21;;;;;;;0.60;0.60;;;2.70;99.90;;;;;;6270699;22;20160;-83
2021/03/20 10:27:52;;;;;;;0.60;0.60;;;2.90;99.90;;;;;;6270781;22;20666;-83
2021/03/20 10:30:22;;;;;;;0.60;0.60;;;3.20;99.90;;;;;;6269494;22;20224;-83
2021/03/20 10:32:59;;;;;;;0.60;0.60;;;3.30;99.90;;;;;;6270968;22;20205;-83
2021/03/20 10:35:27;;;;;;;0.60;0.60;;;3.20;99.90;;;;;;6270527;22;20178;-83
2021/03/20 10:37:54;;;;;;;0.60;0.60;;;3.20;99.90;;;;;;6271359;22;20186;-86
2021/03/20 10:40:25;;;;;;;0.60;0.60;;;3.40;99.90;;;;;;6271379;22;20185;-92
2021/03/20 10:42:58;;;;;;;0.60;0.60;;;3.40;99.90;;;;;;6271051;22;20172;-85
2021/03/20 10:45:41;;;;;;;0.60;0.60;;;3.20;99.90;;;;;;6270399;22;20171;-87
2021/03/20 10:48:14;;;;;;;0.60;0.60;;;5.00;99.90;;;;;;6276135;22;20451;-89
2021/03/20 10:50:44;;;;;;;0.60;0.60;;;3.10;99.90;;;;;;6273183;22;20667;-84
2021/03/20 10:53:18;;;;;;;0.60;0.60;;;2.90;99.90;;;;;;6272555;22;20278;-83
2021/03/20 10:55:57;;;;;;;0.50;0.50;;;3.50;99.90;;;;;;6270071;22;20184;-90
2021/03/20 10:58:29;;;;;;;0.60;0.60;;;3.90;99.90;;;;;;6272136;22;20842;-86
2021/03/20 11:01:39;;;;;;;;;;;;;;;;;;;;;
2021/03/20 11:04:23;;;;;;;;;;;;;;;;;;;;;
2021/03/20 11:06:57;;;;;;;0.60;0.60;;;3.40;99.90;;;;;;6272022;22;20242;-87
2021/03/20 11:09:28;;;;;;;0.60;0.60;;;3.80;99.90;;;;;;6278403;22;20163;-87
2021/03/20 11:12:01;;;;;;;0.60;0.60;;;4.20;99.90;;;;;;6276155;22;20195;-89
2021/03/20 11:14:30;;;;;;;0.60;0.60;;;5.60;99.90;;;;;;6288144;22;20162;-88
2021/03/20 11:22:19;;;;;;;0.60;0.60;;;4.00;99.90;;;;;;6278140;22;20202;-84
2021/03/20 11:24:56;;;;;;;0.52;0.52;;;5.80;99.90;;;;;;6273698;22;20187;-87
2021/03/20 11:27:34;;;;;;;0.60;0.60;;;4.40;99.90;;;;;;6283730;22;20199;-85
2021/03/20 11:30:06;;;;;;;0.50;0.50;;;4.10;99.90;;;;;;6255414;23;20167;-87
2021/03/20 11:32:36;;;;;;;0.60;0.60;;;4.20;99.90;;;;;;6254014;23;20187;-86
2021/03/20 11:35:30;;;;;;;;;;;;;;;;;;;;;
2021/03/20 11:38:00;;;;;;;0.60;0.60;;;5.50;99.90;;;;;;6241642;23;20247;-83
2021/03/20 11:40:30;;;;;;;0.60;0.60;;;4.20;99.90;;;;;;6241699;23;20198;-83
2021/03/20 11:42:59;;;;;;;0.60;0.60;;;4.20;99.90;;;;;;6240906;23;20169;-83
2021/03/20 11:45:29;;;;;;;0.50;0.50;;;4.10;99.90;;;;;;6239629;23;20184;-85
2021/03/20 11:47:58;;;;;;;0.60;0.60;;;3.90;99.90;;;;;;6241553;23;20191;-86
2021/03/20 11:50:28;;;;;;;0.60;0.60;;;3.80;99.90;;;;;;6247749;22;20226;-86
2021/03/20 11:53:07;;;;;;;0.60;0.60;;;3.60;99.90;;;;;;6282193;22;20201;-88
2021/03/20 11:55:37;;;;;;;0.57;0.57;;;3.80;99.90;;;;;;6273115;22;20174;-89
2021/03/20 11:58:21;;;;;;;0.57;0.57;;;3.70;99.90;;;;;;6281990;22;20217;-86
2021/03/20 12:01:37;;;;;;;0.60;0.60;;;3.70;99.90;;;;;;6278808;22;20568;-88
2021/03/20 12:04:34;;;;;;;0.50;0.50;;;3.40;99.90;;;;;;6150613;22;20525;-88
2021/03/20 12:07:24;;;;;;;0.60;0.60;;;3.90;99.90;;;;;;6267067;22;20210;-86
2021/03/20 12:10:12;;;;;;;0.60;0.60;;;3.60;99.90;;;;;;6279207;22;20223;-89
2021/03/20 12:12:55;;;;;;;0.60;0.60;;;4.40;99.90;;;;;;6288311;22;20199;-88
2021/03/20 12:15:26;;;;;;;0.60;0.60;;;3.70;99.90;;;;;;6282489;22;20203;-83
2021/03/20 12:17:55;;;;;;;0.60;0.60;;;3.50;99.90;;;;;;6273118;22;20164;-82
2021/03/20 12:20:33;;;;;;;0.60;0.60;;;3.50;99.90;;;;;;6271049;22;20174;-83
2021/03/20 12:23:12;;;;;;;0.60;0.60;;;3.50;99.90;;;;;;6273104;22;20161;-86
2021/03/20 12:25:48;;;;;;;0.60;0.60;;;3.50;99.90;;;;;;6271223;22;20163;-83
2021/03/20 12:28:36;;;;;;;0.60;0.60;;;3.50;99.90;;;;;;6271795;22;20214;-84
2021/03/20 12:31:14;;;;;;;0.60;0.60;;;3.60;99.90;;;;;;6264175;22;20181;-82
2021/03/20 12:33:45;;;;;;;0.60;0.60;;;3.70;99.90;;;;;;6271019;22;20175;-83
2021/03/20 12:36:18;;;;;;;0.60;0.60;;;3.70;99.90;;;;;;6269299;22;20175;-83
2021/03/20 12:38:44;;;;;;;0.50;0.50;;;3.70;99.90;;;;;;6271700;22;20160;-82
2021/03/20 12:41:18;;;;;;;0.60;0.60;;;3.90;99.90;;;;;;6270629;22;20190;-83
2021/03/20 12:44:04;;;;;;;0.57;0.57;;;3.90;99.90;;;;;;6273323;22;20171;-83
2021/03/20 12:46:30;;;;;;;0.60;0.60;;;3.80;99.90;;;;;;6272588;22;20215;-82
2021/03/20 12:48:56;;;;;;;0.60;0.60;;;3.80;99.90;;;;;;6273599;22;20186;-83
2021/03/20 12:51:24;;;;;;;0.60;0.60;;;3.90;99.90;;;;;;6272998;22;20187;-82
2021/03/20 12:54:04;;;;;;;0.60;0.60;;;3.90;99.90;;;;;;6273262;22;20182;-83
2021/03/20 12:56:31;;;;;;;0.60;0.60;;;4.00;99.90;;;;;;6273363;22;20159;-83
2021/03/20 12:58:57;;;;;;;0.60;0.60;;;3.90;99.90;;;;;;6273450;22;20179;-83
2021/03/20 13:01:23;;;;;;;0.50;0.50;;;4.00;99.90;;;;;;6271702;22;20508;-83
2021/03/20 13:03:50;;;;;;;0.50;0.50;;;4.00;99.90;;;;;;6272930;22;20175;-83
2021/03/20 13:06:16;;;;;;;0.60;0.60;;;4.10;99.90;;;;;;6273276;22;20227;-83
2021/03/20 13:08:42;;;;;;;0.60;0.60;;;4.10;99.90;;;;;;6272753;22;20648;-82
2021/03/20 13:11:25;;;;;;;0.60;0.60;;;4.20;99.90;;;;;;6272128;22;20254;-83
2021/03/20 13:13:52;;;;;;;0.60;0.60;;;4.10;99.90;;;;;;6272957;22;20357;-83
2021/03/20 13:16:18;;;;;;;0.57;0.57;;;4.00;99.90;;;;;;6271634;22;20171;-83
2021/03/20 13:18:45;;;;;;;0.60;0.60;;;4.00;99.90;;;;;;6273516;22;20187;-83
2021/03/20 13:21:11;;;;;;;0.60;0.60;;;4.00;99.90;;;;;;6273017;22;20182;-83
2021/03/20 13:23:37;;;;;;;0.55;0.55;;;4.00;99.90;;;;;;6272816;22;20555;-83
2021/03/20 13:26:04;;;;;;;0.60;0.60;;;4.10;99.90;;;;;;6273170;22;20232;-82
2021/03/20 13:28:30;;;;;;;0.60;0.60;;;4.20;99.90;;;;;;6272724;22;20179;-83
2021/03/20 13:30:57;;;;;;;0.60;0.60;;;4.10;99.90;;;;;;6271709;22;20175;-83
2021/03/20 13:33:23;;;;;;;0.60;0.60;;;4.10;99.90;;;;;;6272080;22;20667;-83
2021/03/20 13:35:51;;;;;;;0.55;0.55;;;4.20;99.90;;;;;;6272180;22;20175;-83